sensor_id;sensor_type;location;lat;lon;timestamp;P1;durP1;ratioP1;P2;durP2;ratioP2
58874;SDS011;44652;49.040;12.126;2022-09-20T05:19:50;6.55;;;3.25;;
58874;SDS011;44652;49.040;12.126;2022-09-20T05:30:48;8.35;;;3.70;;
58874;SDS011;44652;49.040;12.126;2022-09-20T05:33:24;8.05;;;4.20;;
58874;SDS011;44652;49.040;12.126;2022-09-20T05:36:09;8.68;;;3.67;;
58874;SDS011;44652;49.040;12.126;2022-09-20T05:52:40;6.85;;;3.30;;
58874;SDS011;44652;49.040;12.126;2022-09-20T05:55:18;6.95;;;3.70;;
58874;SDS011;44652;49.040;12.126;2022-09-20T06:00:56;7.78;;;3.75;;
58874;SDS011;44652;49.040;12.126;2022-09-20T06:06:56;7.28;;;3.60;;
58874;SDS011;44652;49.040;12.126;2022-09-20T06:10:19;8.98;;;3.65;;
58874;SDS011;44652;49.040;12.126;2022-09-20T06:18:17;9.85;;;3.97;;
58874;SDS011;44652;49.040;12.126;2022-09-20T06:23:22;9.75;;;3.80;;
58874;SDS011;44652;49.040;12.126;2022-09-20T06:26:00;8.07;;;4.27;;
58874;SDS011;44652;49.040;12.126;2022-09-20T06:29:08;6.78;;;3.80;;
58874;SDS011;44652;49.040;12.126;2022-09-20T06:31:28;8.73;;;4.88;;
58874;SDS011;44652;49.040;12.126;2022-09-20T06:36:38;12.57;;;4.88;;
58874;SDS011;44652;49.040;12.126;2022-09-20T06:42:27;8.32;;;4.20;;
58874;SDS011;44652;49.040;12.126;2022-09-20T06:44:54;9.35;;;4.60;;
58874;SDS011;44652;49.040;12.126;2022-09-20T06:47:21;8.32;;;4.00;;
58874;SDS011;44652;49.040;12.126;2022-09-20T06:49:48;9.05;;;4.00;;
58874;SDS011;44652;49.040;12.126;2022-09-20T06:52:16;12.02;;;4.70;;
58874;SDS011;44652;49.040;12.126;2022-09-20T06:54:44;8.57;;;3.95;;
58874;SDS011;44652;49.040;12.126;2022-09-20T06:57:22;10.65;;;4.18;;
58874;SDS011;44652;49.040;12.126;2022-09-20T07:00:00;8.00;;;4.43;;
58874;SDS011;44652;49.040;12.126;2022-09-20T07:02:27;10.32;;;3.95;;
58874;SDS011;44652;49.040;12.126;2022-09-20T07:04:54;8.35;;;4.05;;
58874;SDS011;44652;49.040;12.126;2022-09-20T07:07:22;18.02;;;8.10;;
58874;SDS011;44652;49.040;12.126;2022-09-20T07:09:50;7.95;;;3.83;;
58874;SDS011;44652;49.040;12.126;2022-09-20T07:12:17;36.63;;;18.45;;
58874;SDS011;44652;49.040;12.126;2022-09-20T07:14:44;10.90;;;4.70;;
58874;SDS011;44652;49.040;12.126;2022-09-20T07:17:10;18.95;;;5.32;;
58874;SDS011;44652;49.040;12.126;2022-09-20T07:19:38;10.82;;;4.57;;
58874;SDS011;44652;49.040;12.126;2022-09-20T07:22:05;8.20;;;3.65;;
58874;SDS011;44652;49.040;12.126;2022-09-20T07:24:31;8.38;;;3.00;;
58874;SDS011;44652;49.040;12.126;2022-09-20T07:26:59;8.57;;;3.22;;
58874;SDS011;44652;49.040;12.126;2022-09-20T07:29:30;10.02;;;3.08;;
58874;SDS011;44652;49.040;12.126;2022-09-20T07:31:57;4.82;;;2.25;;
58874;SDS011;44652;49.040;12.126;2022-09-20T07:34:24;8.70;;;2.22;;
58874;SDS011;44652;49.040;12.126;2022-09-20T07:36:50;8.93;;;2.35;;
58874;SDS011;44652;49.040;12.126;2022-09-20T07:39:17;7.63;;;2.25;;
58874;SDS011;44652;49.040;12.126;2022-09-20T07:41:44;8.50;;;2.00;;
58874;SDS011;44652;49.040;12.126;2022-09-20T07:44:13;8.27;;;2.20;;
58874;SDS011;44652;49.040;12.126;2022-09-20T07:46:50;5.80;;;1.92;;
58874;SDS011;44652;49.040;12.126;2022-09-20T07:49:18;6.97;;;2.00;;
58874;SDS011;44652;49.040;12.126;2022-09-20T07:51:47;10.30;;;1.90;;
58874;SDS011;44652;49.040;12.126;2022-09-20T07:54:14;7.13;;;1.65;;
58874;SDS011;44652;49.040;12.126;2022-09-20T07:56:41;6.22;;;1.63;;
58874;SDS011;44652;49.040;12.126;2022-09-20T07:59:08;4.25;;;1.27;;
58874;SDS011;44652;49.040;12.126;2022-09-20T08:01:35;6.65;;;1.83;;
58874;SDS011;44652;49.040;12.126;2022-09-20T08:04:06;6.72;;;1.70;;
58874;SDS011;44652;49.040;12.126;2022-09-20T08:06:41;8.27;;;1.95;;
58874;SDS011;44652;49.040;12.126;2022-09-20T08:09:09;9.32;;;1.98;;
58874;SDS011;44652;49.040;12.126;2022-09-20T08:11:37;9.07;;;1.83;;
58874;SDS011;44652;49.040;12.126;2022-09-20T08:14:05;6.10;;;1.50;;
58874;SDS011;44652;49.040;12.126;2022-09-20T08:16:39;9.57;;;2.05;;
58874;SDS011;44652;49.040;12.126;2022-09-20T08:19:08;7.72;;;1.40;;
58874;SDS011;44652;49.040;12.126;2022-09-20T08:21:40;9.13;;;1.65;;
58874;SDS011;44652;49.040;12.126;2022-09-20T08:24:06;7.13;;;1.58;;
58874;SDS011;44652;49.040;12.126;2022-09-20T08:26:33;8.90;;;1.80;;
58874;SDS011;44652;49.040;12.126;2022-09-20T08:29:03;8.70;;;1.73;;
58874;SDS011;44652;49.040;12.126;2022-09-20T08:31:32;6.32;;;1.65;;
58874;SDS011;44652;49.040;12.126;2022-09-20T08:34:05;10.45;;;2.70;;
58874;SDS011;44652;49.040;12.126;2022-09-20T08:36:37;6.30;;;1.30;;
58874;SDS011;44652;49.040;12.126;2022-09-20T08:39:07;5.18;;;1.60;;
58874;SDS011;44652;49.040;12.126;2022-09-20T08:41:55;6.53;;;1.70;;
58874;SDS011;44652;49.040;12.126;2022-09-20T08:44:30;9.60;;;2.25;;
58874;SDS011;44652;49.040;12.126;2022-09-20T08:47:16;8.10;;;1.80;;
58874;SDS011;44652;49.040;12.126;2022-09-20T08:49:47;5.80;;;1.70;;
58874;SDS011;44652;49.040;12.126;2022-09-20T08:52:29;6.72;;;1.30;;
58874;SDS011;44652;49.040;12.126;2022-09-20T08:55:12;9.20;;;1.98;;
58874;SDS011;44652;49.040;12.126;2022-09-20T08:57:42;7.10;;;1.63;;
58874;SDS011;44652;49.040;12.126;2022-09-20T09:00:13;9.82;;;2.20;;
58874;SDS011;44652;49.040;12.126;2022-09-20T09:02:45;11.18;;;2.13;;
58874;SDS011;44652;49.040;12.126;2022-09-20T09:05:20;6.85;;;1.33;;
58874;SDS011;44652;49.040;12.126;2022-09-20T09:07:57;5.57;;;1.48;;
58874;SDS011;44652;49.040;12.126;2022-09-20T09:10:32;7.82;;;1.80;;
58874;SDS011;44652;49.040;12.126;2022-09-20T09:13:09;6.97;;;1.58;;
58874;SDS011;44652;49.040;12.126;2022-09-20T09:15:43;10.35;;;1.70;;
58874;SDS011;44652;49.040;12.126;2022-09-20T09:18:18;5.20;;;1.58;;
58874;SDS011;44652;49.040;12.126;2022-09-20T09:20:45;6.00;;;1.77;;
58874;SDS011;44652;49.040;12.126;2022-09-20T09:23:20;10.48;;;2.15;;
58874;SDS011;44652;49.040;12.126;2022-09-20T09:25:52;10.70;;;1.52;;
58874;SDS011;44652;49.040;12.126;2022-09-20T09:28:24;3.10;;;0.93;;
58874;SDS011;44652;49.040;12.126;2022-09-20T09:30:54;4.38;;;1.00;;
58874;SDS011;44652;49.040;12.126;2022-09-20T09:33:44;7.15;;;2.03;;
58874;SDS011;44652;49.040;12.126;2022-09-20T09:36:13;5.93;;;1.77;;
58874;SDS011;44652;49.040;12.126;2022-09-20T09:38:42;6.43;;;1.00;;
58874;SDS011;44652;49.040;12.126;2022-09-20T09:43:44;6.13;;;1.20;;
58874;SDS011;44652;49.040;12.126;2022-09-20T09:46:24;5.85;;;1.33;;
58874;SDS011;44652;49.040;12.126;2022-09-20T09:49:03;7.15;;;1.13;;
58874;SDS011;44652;49.040;12.126;2022-09-20T09:54:30;3.47;;;1.08;;
58874;SDS011;44652;49.040;12.126;2022-09-20T10:05:22;5.88;;;1.13;;
58874;SDS011;44652;49.040;12.126;2022-09-20T10:08:12;2.95;;;0.80;;
58874;SDS011;44652;49.040;12.126;2022-09-20T10:13:50;7.32;;;1.15;;
58874;SDS011;44652;49.040;12.126;2022-09-20T10:22:16;3.08;;;0.90;;
58874;SDS011;44652;49.040;12.126;2022-09-20T10:27:32;4.90;;;1.10;;
58874;SDS011;44652;49.040;12.126;2022-09-20T10:30:11;3.88;;;0.90;;
58874;SDS011;44652;49.040;12.126;2022-09-20T10:35:19;3.28;;;1.02;;
58874;SDS011;44652;49.040;12.126;2022-09-20T10:44:01;4.90;;;0.95;;
58874;SDS011;44652;49.040;12.126;2022-09-20T10:49:43;7.93;;;1.42;;
58874;SDS011;44652;49.040;12.126;2022-09-20T10:53:17;6.47;;;1.63;;
58874;SDS011;44652;49.040;12.126;2022-09-20T11:09:18;4.53;;;1.38;;
58874;SDS011;44652;49.040;12.126;2022-09-20T11:14:45;6.32;;;1.20;;
58874;SDS011;44652;49.040;12.126;2022-09-20T11:17:18;5.10;;;1.05;;
58874;SDS011;44652;49.040;12.126;2022-09-20T11:19:59;6.07;;;1.42;;
58874;SDS011;44652;49.040;12.126;2022-09-20T11:22:43;4.18;;;1.13;;
58874;SDS011;44652;49.040;12.126;2022-09-20T11:25:17;6.63;;;1.20;;
58874;SDS011;44652;49.040;12.126;2022-09-20T11:28:08;5.22;;;1.10;;
58874;SDS011;44652;49.040;12.126;2022-09-20T11:30:44;3.90;;;1.10;;
58874;SDS011;44652;49.040;12.126;2022-09-20T11:33:39;10.40;;;1.38;;
58874;SDS011;44652;49.040;12.126;2022-09-20T11:36:54;7.78;;;1.40;;
58874;SDS011;44652;49.040;12.126;2022-09-20T11:39:16;5.82;;;1.48;;
58874;SDS011;44652;49.040;12.126;2022-09-20T11:41:46;7.80;;;1.42;;
58874;SDS011;44652;49.040;12.126;2022-09-20T11:44:17;6.00;;;1.60;;
58874;SDS011;44652;49.040;12.126;2022-09-20T11:46:47;5.93;;;1.20;;
58874;SDS011;44652;49.040;12.126;2022-09-20T11:52:09;5.22;;;0.90;;
58874;SDS011;44652;49.040;12.126;2022-09-20T11:57:32;2.50;;;0.60;;
58874;SDS011;44652;49.040;12.126;2022-09-20T11:59:59;1.55;;;0.50;;
58874;SDS011;44652;49.040;12.126;2022-09-20T12:02:50;1.00;;;0.50;;
58874;SDS011;44652;49.040;12.126;2022-09-20T12:05:26;1.25;;;0.45;;
58874;SDS011;44652;49.040;12.126;2022-09-20T12:08:03;1.10;;;0.60;;
58874;SDS011;44652;49.040;12.126;2022-09-20T12:10:33;1.70;;;0.60;;
58874;SDS011;44652;49.040;12.126;2022-09-20T12:13:07;2.65;;;0.77;;
58874;SDS011;44652;49.040;12.126;2022-09-20T12:15:53;1.67;;;0.80;;
58874;SDS011;44652;49.040;12.126;2022-09-20T12:18:28;3.38;;;0.80;;
58874;SDS011;44652;49.040;12.126;2022-09-20T12:26:34;2.50;;;0.80;;
58874;SDS011;44652;49.040;12.126;2022-09-20T12:31:51;2.85;;;0.90;;
58874;SDS011;44652;49.040;12.126;2022-09-20T12:39:26;3.58;;;0.80;;
58874;SDS011;44652;49.040;12.126;2022-09-20T12:44:35;4.40;;;1.10;;
58874;SDS011;44652;49.040;12.126;2022-09-20T12:47:05;5.03;;;0.90;;
58874;SDS011;44652;49.040;12.126;2022-09-20T12:58:15;2.65;;;0.60;;
58874;SDS011;44652;49.040;12.126;2022-09-20T13:00:49;5.85;;;0.70;;
58874;SDS011;44652;49.040;12.126;2022-09-20T13:11:17;3.33;;;0.82;;
58874;SDS011;44652;49.040;12.126;2022-09-20T13:19:24;2.70;;;0.88;;
58874;SDS011;44652;49.040;12.126;2022-09-20T13:22:00;2.55;;;0.95;;
58874;SDS011;44652;49.040;12.126;2022-09-20T13:24:37;3.90;;;1.17;;
58874;SDS011;44652;49.040;12.126;2022-09-20T13:27:08;5.53;;;1.25;;
58874;SDS011;44652;49.040;12.126;2022-09-20T13:29:44;4.25;;;1.00;;
58874;SDS011;44652;49.040;12.126;2022-09-20T13:32:15;5.05;;;1.40;;
58874;SDS011;44652;49.040;12.126;2022-09-20T13:42:59;3.10;;;0.90;;
58874;SDS011;44652;49.040;12.126;2022-09-20T13:45:51;3.10;;;1.20;;
58874;SDS011;44652;49.040;12.126;2022-09-20T13:48:24;3.58;;;0.95;;
58874;SDS011;44652;49.040;12.126;2022-09-20T13:50:53;5.05;;;1.10;;
58874;SDS011;44652;49.040;12.126;2022-09-20T13:53:21;6.50;;;3.38;;
58874;SDS011;44652;49.040;12.126;2022-09-20T13:56:40;5.88;;;2.30;;
58874;SDS011;44652;49.040;12.126;2022-09-20T13:59:03;4.22;;;1.23;;
58874;SDS011;44652;49.040;12.126;2022-09-20T14:01:31;5.15;;;1.67;;
58874;SDS011;44652;49.040;12.126;2022-09-20T14:04:13;5.55;;;1.50;;
58874;SDS011;44652;49.040;12.126;2022-09-20T14:06:42;2.90;;;1.10;;
58874;SDS011;44652;49.040;12.126;2022-09-20T14:09:22;5.85;;;1.63;;
58874;SDS011;44652;49.040;12.126;2022-09-20T14:11:54;5.15;;;2.30;;
58874;SDS011;44652;49.040;12.126;2022-09-20T14:14:22;3.90;;;1.10;;
58874;SDS011;44652;49.040;12.126;2022-09-20T14:16:50;4.43;;;1.30;;
58874;SDS011;44652;49.040;12.126;2022-09-20T14:19:19;4.03;;;1.58;;
58874;SDS011;44652;49.040;12.126;2022-09-20T14:21:50;4.90;;;2.08;;
58874;SDS011;44652;49.040;12.126;2022-09-20T14:27:01;3.15;;;0.75;;
58874;SDS011;44652;49.040;12.126;2022-09-20T14:29:47;3.15;;;0.88;;
58874;SDS011;44652;49.040;12.126;2022-09-20T14:34:43;3.08;;;0.80;;
58874;SDS011;44652;49.040;12.126;2022-09-20T14:39:48;2.10;;;0.90;;
58874;SDS011;44652;49.040;12.126;2022-09-20T14:42:20;3.22;;;0.93;;
58874;SDS011;44652;49.040;12.126;2022-09-20T14:44:52;3.63;;;0.95;;
58874;SDS011;44652;49.040;12.126;2022-09-20T14:47:26;3.33;;;0.90;;
58874;SDS011;44652;49.040;12.126;2022-09-20T14:49:54;1.38;;;0.50;;
58874;SDS011;44652;49.040;12.126;2022-09-20T14:57:38;1.50;;;0.68;;
58874;SDS011;44652;49.040;12.126;2022-09-20T15:02:43;4.72;;;0.82;;
58874;SDS011;44652;49.040;12.126;2022-09-20T15:05:17;2.33;;;0.75;;
58874;SDS011;44652;49.040;12.126;2022-09-20T15:07:49;2.67;;;0.80;;
58874;SDS011;44652;49.040;12.126;2022-09-20T15:10:15;2.22;;;1.05;;
58874;SDS011;44652;49.040;12.126;2022-09-20T15:12:42;2.72;;;1.05;;
58874;SDS011;44652;49.040;12.126;2022-09-20T15:15:12;3.20;;;0.80;;
58874;SDS011;44652;49.040;12.126;2022-09-20T15:17:40;3.28;;;0.82;;
58874;SDS011;44652;49.040;12.126;2022-09-20T15:20:16;3.83;;;1.00;;
58874;SDS011;44652;49.040;12.126;2022-09-20T15:22:49;2.40;;;0.80;;
58874;SDS011;44652;49.040;12.126;2022-09-20T15:25:19;2.22;;;0.90;;
58874;SDS011;44652;49.040;12.126;2022-09-20T15:27:47;3.60;;;0.77;;
58874;SDS011;44652;49.040;12.126;2022-09-20T15:30:16;4.20;;;0.75;;
58874;SDS011;44652;49.040;12.126;2022-09-20T15:32:45;1.98;;;0.70;;
58874;SDS011;44652;49.040;12.126;2022-09-20T15:35:12;2.28;;;0.70;;
58874;SDS011;44652;49.040;12.126;2022-09-20T15:37:39;1.63;;;0.70;;
58874;SDS011;44652;49.040;12.126;2022-09-20T15:40:06;2.20;;;0.85;;
58874;SDS011;44652;49.040;12.126;2022-09-20T15:42:34;3.20;;;0.93;;
58874;SDS011;44652;49.040;12.126;2022-09-20T15:45:07;4.78;;;0.90;;
58874;SDS011;44652;49.040;12.126;2022-09-20T15:47:36;3.53;;;0.90;;
58874;SDS011;44652;49.040;12.126;2022-09-20T15:50:05;4.90;;;1.08;;
58874;SDS011;44652;49.040;12.126;2022-09-20T15:52:39;3.28;;;1.02;;
58874;SDS011;44652;49.040;12.126;2022-09-20T15:55:07;4.43;;;1.40;;
58874;SDS011;44652;49.040;12.126;2022-09-20T15:57:34;2.63;;;1.10;;
58874;SDS011;44652;49.040;12.126;2022-09-20T16:00:01;3.45;;;1.23;;
58874;SDS011;44652;49.040;12.126;2022-09-20T16:02:33;4.40;;;1.25;;
58874;SDS011;44652;49.040;12.126;2022-09-20T16:05:00;3.10;;;1.33;;
58874;SDS011;44652;49.040;12.126;2022-09-20T16:07:27;5.28;;;1.40;;
58874;SDS011;44652;49.040;12.126;2022-09-20T16:09:54;3.50;;;1.60;;
58874;SDS011;44652;49.040;12.126;2022-09-20T16:12:22;6.90;;;2.25;;
58874;SDS011;44652;49.040;12.126;2022-09-20T16:14:49;3.25;;;1.42;;
58874;SDS011;44652;49.040;12.126;2022-09-20T16:17:16;2.83;;;1.38;;
58874;SDS011;44652;49.040;12.126;2022-09-20T16:19:43;2.22;;;1.13;;
58874;SDS011;44652;49.040;12.126;2022-09-20T16:22:13;2.72;;;1.10;;
58874;SDS011;44652;49.040;12.126;2022-09-20T16:24:41;2.80;;;1.05;;
58874;SDS011;44652;49.040;12.126;2022-09-20T16:27:08;4.10;;;1.13;;
58874;SDS011;44652;49.040;12.126;2022-09-20T16:29:35;2.53;;;1.23;;
58874;SDS011;44652;49.040;12.126;2022-09-20T16:32:02;2.92;;;1.00;;
58874;SDS011;44652;49.040;12.126;2022-09-20T16:34:33;4.90;;;2.30;;
58874;SDS011;44652;49.040;12.126;2022-09-20T16:37:10;9.55;;;6.28;;
58874;SDS011;44652;49.040;12.126;2022-09-20T16:39:41;11.32;;;7.47;;
58874;SDS011;44652;49.040;12.126;2022-09-20T16:42:10;10.77;;;7.50;;
58874;SDS011;44652;49.040;12.126;2022-09-20T16:44:39;11.48;;;7.80;;
58874;SDS011;44652;49.040;12.126;2022-09-20T16:47:11;10.57;;;7.18;;
58874;SDS011;44652;49.040;12.126;2022-09-20T16:49:43;10.35;;;7.85;;
58874;SDS011;44652;49.040;12.126;2022-09-20T16:52:12;6.40;;;3.70;;
58874;SDS011;44652;49.040;12.126;2022-09-20T16:54:39;5.32;;;2.40;;
58874;SDS011;44652;49.040;12.126;2022-09-20T16:57:06;6.80;;;2.30;;
58874;SDS011;44652;49.040;12.126;2022-09-20T16:59:33;4.57;;;2.20;;
58874;SDS011;44652;49.040;12.126;2022-09-20T17:02:00;6.25;;;2.30;;
58874;SDS011;44652;49.040;12.126;2022-09-20T17:04:26;6.53;;;2.15;;
58874;SDS011;44652;49.040;12.126;2022-09-20T17:06:53;6.20;;;2.67;;
58874;SDS011;44652;49.040;12.126;2022-09-20T17:09:20;10.52;;;6.00;;
58874;SDS011;44652;49.040;12.126;2022-09-20T17:11:47;6.38;;;4.20;;
58874;SDS011;44652;49.040;12.126;2022-09-20T17:14:16;10.95;;;5.07;;
58874;SDS011;44652;49.040;12.126;2022-09-20T17:16:44;9.00;;;4.63;;
58874;SDS011;44652;49.040;12.126;2022-09-20T17:19:16;8.07;;;4.03;;
58874;SDS011;44652;49.040;12.126;2022-09-20T17:21:45;7.93;;;4.50;;
58874;SDS011;44652;49.040;12.126;2022-09-20T17:24:17;7.00;;;4.40;;
58874;SDS011;44652;49.040;12.126;2022-09-20T17:26:45;8.52;;;4.80;;
58874;SDS011;44652;49.040;12.126;2022-09-20T17:29:13;8.52;;;5.53;;
58874;SDS011;44652;49.040;12.126;2022-09-20T17:31:43;9.32;;;5.43;;
58874;SDS011;44652;49.040;12.126;2022-09-20T17:34:17;6.80;;;4.30;;
58874;SDS011;44652;49.040;12.126;2022-09-20T17:36:46;9.07;;;4.85;;
58874;SDS011;44652;49.040;12.126;2022-09-20T17:39:14;7.10;;;3.83;;
58874;SDS011;44652;49.040;12.126;2022-09-20T17:41:42;6.65;;;3.97;;
58874;SDS011;44652;49.040;12.126;2022-09-20T17:44:11;7.63;;;4.85;;
58874;SDS011;44652;49.040;12.126;2022-09-20T17:46:38;7.18;;;4.60;;
58874;SDS011;44652;49.040;12.126;2022-09-20T17:49:08;7.43;;;5.10;;
58874;SDS011;44652;49.040;12.126;2022-09-20T17:54:06;8.63;;;5.70;;
58874;SDS011;44652;49.040;12.126;2022-09-20T17:56:41;9.43;;;5.45;;
58874;SDS011;44652;49.040;12.126;2022-09-20T17:59:10;11.82;;;6.43;;
58874;SDS011;44652;49.040;12.126;2022-09-20T18:01:38;8.77;;;4.88;;
58874;SDS011;44652;49.040;12.126;2022-09-20T18:04:05;8.27;;;4.70;;
58874;SDS011;44652;49.040;12.126;2022-09-20T18:09:05;11.50;;;7.25;;
58874;SDS011;44652;49.040;12.126;2022-09-20T18:11:40;10.68;;;6.90;;
58874;SDS011;44652;49.040;12.126;2022-09-20T18:14:18;10.98;;;7.28;;
58874;SDS011;44652;49.040;12.126;2022-09-20T18:16:50;12.55;;;7.78;;
58874;SDS011;44652;49.040;12.126;2022-09-20T18:19:21;12.27;;;8.23;;
58874;SDS011;44652;49.040;12.126;2022-09-20T18:21:48;9.52;;;6.90;;
58874;SDS011;44652;49.040;12.126;2022-09-20T18:24:15;12.00;;;6.88;;
58874;SDS011;44652;49.040;12.126;2022-09-20T18:26:42;8.43;;;5.88;;
58874;SDS011;44652;49.040;12.126;2022-09-20T18:29:10;11.67;;;8.13;;
58874;SDS011;44652;49.040;12.126;2022-09-20T18:31:39;10.27;;;6.80;;
58874;SDS011;44652;49.040;12.126;2022-09-20T18:34:11;10.07;;;4.72;;
58874;SDS011;44652;49.040;12.126;2022-09-20T18:36:40;11.50;;;4.88;;
58874;SDS011;44652;49.040;12.126;2022-09-20T18:39:07;9.38;;;4.90;;
58874;SDS011;44652;49.040;12.126;2022-09-20T18:41:35;7.75;;;4.72;;
58874;SDS011;44652;49.040;12.126;2022-09-20T18:44:03;9.90;;;5.00;;
58874;SDS011;44652;49.040;12.126;2022-09-20T18:46:32;7.75;;;4.72;;
58874;SDS011;44652;49.040;12.126;2022-09-20T18:49:04;9.63;;;6.45;;
58874;SDS011;44652;49.040;12.126;2022-09-20T18:51:34;10.15;;;6.18;;
58874;SDS011;44652;49.040;12.126;2022-09-20T18:54:09;7.40;;;4.50;;
58874;SDS011;44652;49.040;12.126;2022-09-20T18:56:37;8.35;;;4.82;;
58874;SDS011;44652;49.040;12.126;2022-09-20T18:59:06;6.47;;;4.18;;
58874;SDS011;44652;49.040;12.126;2022-09-20T19:01:47;9.32;;;5.22;;
58874;SDS011;44652;49.040;12.126;2022-09-20T19:10:02;9.20;;;5.57;;
58874;SDS011;44652;49.040;12.126;2022-09-20T19:28:48;9.25;;;5.88;;
58874;SDS011;44652;49.040;12.126;2022-09-20T19:31:29;10.63;;;6.72;;
58874;SDS011;44652;49.040;12.126;2022-09-20T19:33:59;10.38;;;6.70;;
58874;SDS011;44652;49.040;12.126;2022-09-20T19:36:33;14.77;;;6.82;;
58874;SDS011;44652;49.040;12.126;2022-09-20T19:39:15;8.70;;;6.55;;
58874;SDS011;44652;49.040;12.126;2022-09-20T19:44:47;11.55;;;7.20;;
58874;SDS011;44652;49.040;12.126;2022-09-20T19:47:28;11.27;;;7.03;;
58874;SDS011;44652;49.040;12.126;2022-09-20T19:50:13;11.00;;;6.97;;
58874;SDS011;44652;49.040;12.126;2022-09-20T19:52:51;13.68;;;8.85;;
58874;SDS011;44652;49.040;12.126;2022-09-20T19:57:47;16.48;;;8.93;;
58874;SDS011;44652;49.040;12.126;2022-09-20T20:00:15;13.40;;;7.85;;
58874;SDS011;44652;49.040;12.126;2022-09-20T20:02:45;12.48;;;8.63;;
58874;SDS011;44652;49.040;12.126;2022-09-20T20:05:15;10.80;;;7.20;;
58874;SDS011;44652;49.040;12.126;2022-09-20T20:07:53;10.33;;;6.50;;
58874;SDS011;44652;49.040;12.126;2022-09-20T20:10:38;11.85;;;6.60;;
58874;SDS011;44652;49.040;12.126;2022-09-20T20:13:21;10.18;;;5.90;;
58874;SDS011;44652;49.040;12.126;2022-09-20T20:16:18;10.15;;;7.40;;
58874;SDS011;44652;49.040;12.126;2022-09-20T20:21:39;18.70;;;13.55;;
58874;SDS011;44652;49.040;12.126;2022-09-20T20:26:47;17.08;;;9.40;;
58874;SDS011;44652;49.040;12.126;2022-09-20T20:29:13;11.38;;;7.53;;
58874;SDS011;44652;49.040;12.126;2022-09-20T20:31:40;13.85;;;8.50;;
58874;SDS011;44652;49.040;12.126;2022-09-20T20:34:06;10.98;;;7.75;;
58874;SDS011;44652;49.040;12.126;2022-09-20T20:36:34;9.43;;;6.90;;
58874;SDS011;44652;49.040;12.126;2022-09-20T20:39:00;9.73;;;6.97;;
58874;SDS011;44652;49.040;12.126;2022-09-20T20:41:27;10.73;;;6.68;;
58874;SDS011;44652;49.040;12.126;2022-09-20T20:43:56;8.60;;;6.13;;
58874;SDS011;44652;49.040;12.126;2022-09-20T20:46:23;8.63;;;5.90;;
58874;SDS011;44652;49.040;12.126;2022-09-20T20:48:51;11.70;;;6.38;;
58874;SDS011;44652;49.040;12.126;2022-09-20T20:51:19;13.13;;;6.78;;
58874;SDS011;44652;49.040;12.126;2022-09-20T20:53:48;15.63;;;7.15;;
58874;SDS011;44652;49.040;12.126;2022-09-20T20:56:24;11.88;;;7.18;;
58874;SDS011;44652;49.040;12.126;2022-09-20T20:58:53;9.73;;;6.68;;
58874;SDS011;44652;49.040;12.126;2022-09-20T21:01:21;9.77;;;6.20;;
58874;SDS011;44652;49.040;12.126;2022-09-20T21:03:50;10.77;;;5.70;;
58874;SDS011;44652;49.040;12.126;2022-09-20T21:06:20;10.40;;;5.60;;
58874;SDS011;44652;49.040;12.126;2022-09-20T21:08:49;11.77;;;6.07;;
58874;SDS011;44652;49.040;12.126;2022-09-20T21:11:17;9.93;;;6.93;;
58874;SDS011;44652;49.040;12.126;2022-09-20T21:13:47;9.23;;;6.40;;
58874;SDS011;44652;49.040;12.126;2022-09-20T21:16:15;10.68;;;6.28;;
58874;SDS011;44652;49.040;12.126;2022-09-20T21:18:44;9.90;;;6.03;;
58874;SDS011;44652;49.040;12.126;2022-09-20T21:21:17;9.93;;;6.80;;
58874;SDS011;44652;49.040;12.126;2022-09-20T21:23:46;16.70;;;7.28;;
58874;SDS011;44652;49.040;12.126;2022-09-20T21:26:15;11.57;;;6.75;;
58874;SDS011;44652;49.040;12.126;2022-09-20T21:28:43;13.18;;;7.65;;
58874;SDS011;44652;49.040;12.126;2022-09-20T21:31:11;9.45;;;6.05;;
58874;SDS011;44652;49.040;12.126;2022-09-20T21:33:39;12.02;;;6.30;;
58874;SDS011;44652;49.040;12.126;2022-09-20T21:36:09;25.20;;;8.80;;
58874;SDS011;44652;49.040;12.126;2022-09-20T21:38:39;77.75;;;7.82;;
58874;SDS011;44652;49.040;12.126;2022-09-20T21:43:38;9.82;;;5.97;;
58874;SDS011;44652;49.040;12.126;2022-09-20T21:48:43;32.60;;;6.38;;
58874;SDS011;44652;49.040;12.126;2022-09-20T21:51:12;12.23;;;5.28;;
58874;SDS011;44652;49.040;12.126;2022-09-20T21:53:40;9.57;;;5.65;;
58874;SDS011;44652;49.040;12.126;2022-09-20T21:56:07;7.10;;;5.28;;
58874;SDS011;44652;49.040;12.126;2022-09-20T21:58:36;61.65;;;7.95;;
58874;SDS011;44652;49.040;12.126;2022-09-20T22:01:13;53.80;;;6.85;;
58874;SDS011;44652;49.040;12.126;2022-09-20T22:03:45;9.38;;;5.20;;
58874;SDS011;44652;49.040;12.126;2022-09-20T22:06:18;52.92;;;6.28;;
58874;SDS011;44652;49.040;12.126;2022-09-20T22:08:47;21.02;;;5.90;;
58874;SDS011;44652;49.040;12.126;2022-09-20T22:11:16;15.15;;;6.38;;
58874;SDS011;44652;49.040;12.126;2022-09-20T22:13:44;14.45;;;5.43;;
58874;SDS011;44652;49.040;12.126;2022-09-20T22:16:17;19.08;;;5.70;;
58874;SDS011;44652;49.040;12.126;2022-09-20T22:18:54;25.75;;;5.78;;
58874;SDS011;44652;49.040;12.126;2022-09-20T22:21:23;28.53;;;4.70;;
58874;SDS011;44652;49.040;12.126;2022-09-20T22:23:52;8.38;;;4.32;;
58874;SDS011;44652;49.040;12.126;2022-09-20T22:26:23;21.27;;;4.38;;
58874;SDS011;44652;49.040;12.126;2022-09-20T22:28:52;11.35;;;4.45;;
58874;SDS011;44652;49.040;12.126;2022-09-20T22:31:22;6.85;;;3.80;;
58874;SDS011;44652;49.040;12.126;2022-09-20T22:33:54;5.85;;;3.80;;
58874;SDS011;44652;49.040;12.126;2022-09-20T22:36:24;5.82;;;3.45;;
58874;SDS011;44652;49.040;12.126;2022-09-20T22:38:54;7.97;;;3.67;;
58874;SDS011;44652;49.040;12.126;2022-09-20T22:41:21;7.03;;;4.10;;
58874;SDS011;44652;49.040;12.126;2022-09-20T22:43:48;6.75;;;4.35;;
58874;SDS011;44652;49.040;12.126;2022-09-20T22:46:16;7.65;;;4.00;;
58874;SDS011;44652;49.040;12.126;2022-09-20T22:48:44;7.05;;;4.25;;
58874;SDS011;44652;49.040;12.126;2022-09-20T22:51:12;10.48;;;4.35;;
58874;SDS011;44652;49.040;12.126;2022-09-20T22:53:42;6.72;;;4.38;;
58874;SDS011;44652;49.040;12.126;2022-09-20T22:56:13;14.80;;;4.87;;
58874;SDS011;44652;49.040;12.126;2022-09-20T22:58:45;7.75;;;4.00;;
58874;SDS011;44652;49.040;12.126;2022-09-20T23:01:24;9.82;;;4.10;;
58874;SDS011;44652;49.040;12.126;2022-09-20T23:03:56;7.25;;;3.88;;
58874;SDS011;44652;49.040;12.126;2022-09-20T23:06:30;6.93;;;4.07;;
58874;SDS011;44652;49.040;12.126;2022-09-20T23:09:08;6.25;;;3.50;;
58874;SDS011;44652;49.040;12.126;2022-09-20T23:11:38;6.95;;;3.30;;
58874;SDS011;44652;49.040;12.126;2022-09-20T23:14:08;7.22;;;3.13;;
58874;SDS011;44652;49.040;12.126;2022-09-20T23:16:37;7.13;;;3.15;;
58874;SDS011;44652;49.040;12.126;2022-09-20T23:19:05;4.22;;;2.83;;
58874;SDS011;44652;49.040;12.126;2022-09-20T23:21:39;4.93;;;2.80;;
58874;SDS011;44652;49.040;12.126;2022-09-20T23:24:08;5.53;;;3.22;;
58874;SDS011;44652;49.040;12.126;2022-09-20T23:26:36;5.82;;;3.17;;
58874;SDS011;44652;49.040;12.126;2022-09-20T23:29:05;6.40;;;3.03;;
58874;SDS011;44652;49.040;12.126;2022-09-20T23:31:34;4.50;;;3.00;;
58874;SDS011;44652;49.040;12.126;2022-09-20T23:34:04;8.60;;;3.05;;
58874;SDS011;44652;49.040;12.126;2022-09-20T23:36:33;7.07;;;2.80;;
58874;SDS011;44652;49.040;12.126;2022-09-20T23:39:08;4.00;;;2.47;;
58874;SDS011;44652;49.040;12.126;2022-09-20T23:41:36;4.47;;;2.50;;
58874;SDS011;44652;49.040;12.126;2022-09-20T23:44:03;11.55;;;2.88;;